Adena, OH

3:26 PM EDT on May 27, 2015 (GMT -0400)
Upland Heights | | Change Station
CLOSE
Current Station
Personal Weather Station
Location: Rayland, OH
Elevation: 1089 ft
Nearby Weather Stations

Elev 1089 ft 40.16 °N, 80.72 °W | Updated 6 minutes ago

Partly Cloudy
Partly Cloudy
84.2 °F
Feels Like 86 °F
N
3.7
Wind Variable Wind from SSW

Today
High -- | Low -- °F
--% Chance of Precip.
Yesterday
High -- | Low -- °F
Precip. -- in
5:58 AM 8:42 PM
Waxing Gibbous, 69% visible
Pressure 30.13 in
Visibility 10.0 miles
Clouds Few 3900 ft
Mostly Cloudy 5500 ft
Heat Index 86 °F
Dew Point 65 °F
Humidity 52%
Rainfall 0.48 in
Snow Depth Not available.
UV 6 out of 12
Pollen 7.90 out of 12
Air Quality Not available.
Flu Activity Local Activity
METAR KHLG 271853Z 24012G19KT 10SM FEW039 BKN055 25/16 A3013

More Conditions Fewer Conditions

Pressure 30.13 in
Visibility 10.0 miles
Clouds Few 3900 ft
Mostly Cloudy 5500 ft
Heat Index 86 °F
Dew Point 65 °F
Humidity 52%
Rainfall 0.48 in
Snow Depth Not available.
UV 6 out of 12
Pollen 7.90 out of 12
Air Quality Not available.
Flu Activity Local Activity
METAR KHLG 271853Z 24012G19KT 10SM FEW039 BKN055 25/16 A3013

More Conditions Fewer Conditions

10-Day Weather Forecast

Almanac

Astronomy

May. 27, 2015 Rise Set
Actual Time
Civil Twilight
Nautical Twilight
Astronomical Twilight
Moon
Length of Visible Light
Length of Day
Tomorrow will be .
, % of the Moon is Illuminated

Today's Extremes

State Highs State Lows

Community

WunderPhotos

Upload Photos

1,824,770 photos uploaded!

WunderBlogs® & News

Nearby

Air Quality

  Air Quality AQ Index Pollutant
Not available.

Snow Depth

Station Depth Elevation

Earthquake Activity

City Distance Mag. Time & Date
Minimum magnitude displayed is 2.5.

Coastal Water Temperatures

Place Temperature

Stations

Nearby Weather Stations

Station Location Temp. Windchill Dew Point Humidity Wind Precip. Elev Updated Type